sensor_id;sensor_type;location;lat;lon;timestamp;pressure;altitude;pressure_sealevel;temperature;humidity
5296;BME280;2670;42.720;23.336;2023-02-20T00:01:35;-22728.25;;;9.84;72.91
5296;BME280;2670;42.720;23.336;2023-02-20T00:04:02;-22728.25;;;9.84;73.11
5296;BME280;2670;42.720;23.336;2023-02-20T00:06:29;-22726.63;;;9.78;73.89
5296;BME280;2670;42.720;23.336;2023-02-20T00:08:55;-22724.84;;;9.72;73.87
5296;BME280;2670;42.720;23.336;2023-02-20T00:11:22;-22724.69;;;9.71;74.65
5296;BME280;2670;42.720;23.336;2023-02-20T00:13:50;-22723.34;;;9.67;75.33
5296;BME280;2670;42.720;23.336;2023-02-20T00:16:17;-22723.66;;;9.68;75.53
5296;BME280;2670;42.720;23.336;2023-02-20T00:18:44;-22722.59;;;9.64;75.81
5296;BME280;2670;42.720;23.336;2023-02-20T00:21:11;-22720.38;;;9.57;76.27
5296;BME280;2670;42.720;23.336;2023-02-20T00:23:38;-22720.09;;;9.56;76.59
5296;BME280;2670;42.720;23.336;2023-02-20T00:26:07;-22721.72;;;9.61;76.41
5296;BME280;2670;42.720;23.336;2023-02-20T00:28:34;-22716.69;;;9.44;77.88
5296;BME280;2670;42.720;23.336;2023-02-20T00:31:02;-22717.88;;;9.48;77.67
5296;BME280;2670;42.720;23.336;2023-02-20T00:33:29;-22714.16;;;9.35;78.94
5296;BME280;2670;42.720;23.336;2023-02-20T00:35:56;-22711.78;;;9.27;79.63
5296;BME280;2670;42.720;23.336;2023-02-20T00:38:23;-22710.31;;;9.22;80.41
5296;BME280;2670;42.720;23.336;2023-02-20T00:40:50;-22713.13;;;9.32;79.84
5296;BME280;2670;42.720;23.336;2023-02-20T00:43:16;-22711.78;;;9.27;80.38
5296;BME280;2670;42.720;23.336;2023-02-20T00:45:43;-22710.31;;;9.22;81.43
5296;BME280;2670;42.720;23.336;2023-02-20T00:48:11;-22708.81;;;9.17;81.55
5296;BME280;2670;42.720;23.336;2023-02-20T00:50:38;-22708.06;;;9.14;82.26
5296;BME280;2670;42.720;23.336;2023-02-20T00:53:05;-22706.44;;;9.09;82.82
5296;BME280;2670;42.720;23.336;2023-02-20T00:55:31;-22706.28;;;9.08;83.23
5296;BME280;2670;42.720;23.336;2023-02-20T00:57:58;-22706.44;;;9.09;83.45
5296;BME280;2670;42.720;23.336;2023-02-20T01:00:27;-22709.72;;;9.20;82.77
5296;BME280;2670;42.720;23.336;2023-02-20T01:02:54;-22706.75;;;9.10;83.71
5296;BME280;2670;42.720;23.336;2023-02-20T01:05:23;-22704.50;;;9.02;84.29
5296;BME280;2670;42.720;23.336;2023-02-20T01:07:50;-22705.41;;;9.05;83.79
5296;BME280;2670;42.720;23.336;2023-02-20T01:10:16;-22706.44;;;9.09;83.72
5296;BME280;2670;42.720;23.336;2023-02-20T01:12:43;-22704.22;;;9.01;85.09
5296;BME280;2670;42.720;23.336;2023-02-20T01:15:10;-22702.00;;;8.93;85.63
5296;BME280;2670;42.720;23.336;2023-02-20T01:17:37;-22702.72;;;8.96;86.11
5296;BME280;2670;42.720;23.336;2023-02-20T01:20:05;-22702.72;;;8.96;85.65
5296;BME280;2670;42.720;23.336;2023-02-20T01:22:34;-22704.66;;;9.03;85.72
5296;BME280;2670;42.720;23.336;2023-02-20T01:25:01;-22703.31;;;8.98;85.95
5296;BME280;2670;42.720;23.336;2023-02-20T01:27:27;-22702.88;;;8.96;85.98
5296;BME280;2670;42.720;23.336;2023-02-20T01:29:54;-22701.09;;;8.90;87.15
5296;BME280;2670;42.720;23.336;2023-02-20T01:32:21;-22702.00;;;8.93;86.77
5296;BME280;2670;42.720;23.336;2023-02-20T01:34:47;-22704.50;;;9.02;86.75
5296;BME280;2670;42.720;23.336;2023-02-20T01:37:14;-22705.41;;;9.05;86.05
5296;BME280;2670;42.720;23.336;2023-02-20T01:39:42;-22703.03;;;8.97;86.58
5296;BME280;2670;42.720;23.336;2023-02-20T01:42:13;-22702.44;;;8.95;86.67
5296;BME280;2670;42.720;23.336;2023-02-20T01:44:42;-22702.88;;;8.96;87.56
5296;BME280;2670;42.720;23.336;2023-02-20T01:47:11;-22703.63;;;8.99;87.88
5296;BME280;2670;42.720;23.336;2023-02-20T01:49:45;-22703.91;;;9.00;88.21
5296;BME280;2670;42.720;23.336;2023-02-20T01:52:16;-22703.31;;;8.98;88.76
5296;BME280;2670;42.720;23.336;2023-02-20T01:54:50;-22703.63;;;8.99;88.58
5296;BME280;2670;42.720;23.336;2023-02-20T01:57:21;-22704.06;;;9.01;88.74
5296;BME280;2670;42.720;23.336;2023-02-20T01:59:51;-22704.06;;;9.01;89.12
5296;BME280;2670;42.720;23.336;2023-02-20T02:02:20;-22702.72;;;8.96;89.67
5296;BME280;2670;42.720;23.336;2023-02-20T02:04:49;-22704.81;;;9.03;89.45
5296;BME280;2670;42.720;23.336;2023-02-20T02:07:16;-22701.41;;;8.91;91.02
5296;BME280;2670;42.720;23.336;2023-02-20T02:09:49;-22701.69;;;8.92;91.08
5296;BME280;2670;42.720;23.336;2023-02-20T02:12:17;-22700.81;;;8.89;91.66
5296;BME280;2670;42.720;23.336;2023-02-20T02:14:44;-22699.47;;;8.85;93.12
5296;BME280;2670;42.720;23.336;2023-02-20T02:17:30;-22697.97;;;8.80;94.00
5296;BME280;2670;42.720;23.336;2023-02-20T02:23:18;-22692.03;;;8.59;93.51
5296;BME280;2670;42.720;23.336;2023-02-20T02:25:54;-22689.22;;;8.50;92.56
5296;BME280;2670;42.720;23.336;2023-02-20T02:28:51;-22687.59;;;8.44;92.78
5296;BME280;2670;42.720;23.336;2023-02-20T02:34:38;-22685.50;;;8.37;92.02
5296;BME280;2670;42.720;23.336;2023-02-20T02:37:17;-22682.25;;;8.26;92.54
5296;BME280;2670;42.720;23.336;2023-02-20T02:39:48;-22681.66;;;8.23;92.63
5296;BME280;2670;42.720;23.336;2023-02-20T02:42:19;-22679.28;;;8.15;93.84
5296;BME280;2670;42.720;23.336;2023-02-20T02:44:55;-22675.72;;;8.03;95.62
5296;BME280;2670;42.720;23.336;2023-02-20T02:47:28;-22677.03;;;8.08;95.63
5296;BME280;2670;42.720;23.336;2023-02-20T02:50:01;-22676.44;;;8.06;95.98
5296;BME280;2670;42.720;23.336;2023-02-20T02:52:31;-22677.19;;;8.08;96.16
5296;BME280;2670;42.720;23.336;2023-02-20T02:55:15;-22677.94;;;8.11;96.54
5296;BME280;2670;42.720;23.336;2023-02-20T02:57:41;-22674.81;;;8.00;97.16
5296;BME280;2670;42.720;23.336;2023-02-20T03:00:10;-22675.13;;;8.01;97.71
5296;BME280;2670;42.720;23.336;2023-02-20T03:02:43;-22671.69;;;7.89;97.54
5296;BME280;2670;42.720;23.336;2023-02-20T03:05:15;-22671.53;;;7.89;98.74
5296;BME280;2670;42.720;23.336;2023-02-20T03:07:47;-22672.72;;;7.93;98.25
5296;BME280;2670;42.720;23.336;2023-02-20T03:10:19;-22670.81;;;7.86;99.22
5296;BME280;2670;42.720;23.336;2023-02-20T03:12:58;-22667.69;;;7.76;99.81
5296;BME280;2670;42.720;23.336;2023-02-20T03:15:29;-22668.13;;;7.77;99.91
5296;BME280;2670;42.720;23.336;2023-02-20T03:18:04;-22667.09;;;7.73;100.00
5296;BME280;2670;42.720;23.336;2023-02-20T03:20:36;-22664.25;;;7.64;100.00
5296;BME280;2670;42.720;23.336;2023-02-20T03:23:07;-22665.44;;;7.68;100.00
5296;BME280;2670;42.720;23.336;2023-02-20T03:25:37;-22663.38;;;7.61;99.96
5296;BME280;2670;42.720;23.336;2023-02-20T03:28:08;-22662.47;;;7.58;99.99
5296;BME280;2670;42.720;23.336;2023-02-20T03:30:42;-22665.31;;;7.67;99.52
5296;BME280;2670;42.720;23.336;2023-02-20T03:33:12;-22664.41;;;7.64;99.02
5296;BME280;2670;42.720;23.336;2023-02-20T03:36:01;-22664.25;;;7.64;98.84
5296;BME280;2670;42.720;23.336;2023-02-20T03:38:52;-22663.22;;;7.60;98.17
5296;BME280;2670;42.720;23.336;2023-02-20T03:41:39;-22664.88;;;7.66;98.06
5296;BME280;2670;42.720;23.336;2023-02-20T03:44:27;-22664.25;;;7.64;96.28
5296;BME280;2670;42.720;23.336;2023-02-20T03:46:54;-22663.66;;;7.62;96.85
5296;BME280;2670;42.720;23.336;2023-02-20T03:49:26;-22661.75;;;7.55;96.74
5296;BME280;2670;42.720;23.336;2023-02-20T03:51:55;-22662.78;;;7.59;96.82
5296;BME280;2670;42.720;23.336;2023-02-20T03:54:27;-22662.78;;;7.59;96.09
5296;BME280;2670;42.720;23.336;2023-02-20T03:56:57;-22661.28;;;7.54;96.68
5296;BME280;2670;42.720;23.336;2023-02-20T03:59:30;-22661.00;;;7.53;97.33
5296;BME280;2670;42.720;23.336;2023-02-20T04:02:01;-22661.00;;;7.53;96.26
5296;BME280;2670;42.720;23.336;2023-02-20T04:04:32;-22662.47;;;7.58;96.75
5296;BME280;2670;42.720;23.336;2023-02-20T04:07:01;-22658.16;;;7.43;97.34
5296;BME280;2670;42.720;23.336;2023-02-20T04:09:33;-22657.88;;;7.42;97.49
5296;BME280;2670;42.720;23.336;2023-02-20T04:12:05;-22659.22;;;7.46;97.41
5296;BME280;2670;42.720;23.336;2023-02-20T04:14:35;-22659.34;;;7.47;97.83
5296;BME280;2670;42.720;23.336;2023-02-20T04:17:05;-22661.28;;;7.54;97.61
5296;BME280;2670;42.720;23.336;2023-02-20T04:19:33;-22659.50;;;7.47;97.67
5296;BME280;2670;42.720;23.336;2023-02-20T04:22:02;-22657.13;;;7.39;97.93
5296;BME280;2670;42.720;23.336;2023-02-20T04:24:33;-22659.06;;;7.46;97.25
5296;BME280;2670;42.720;23.336;2023-02-20T04:27:03;-22659.34;;;7.47;97.75
5296;BME280;2670;42.720;23.336;2023-02-20T04:29:31;-22659.34;;;7.47;98.33
5296;BME280;2670;42.720;23.336;2023-02-20T04:31:57;-22657.13;;;7.39;98.73
5296;BME280;2670;42.720;23.336;2023-02-20T04:34:24;-22655.34;;;7.33;100.00
5296;BME280;2670;42.720;23.336;2023-02-20T04:37:00;-22656.97;;;7.39;100.00
5296;BME280;2670;42.720;23.336;2023-02-20T04:39:30;-22655.94;;;7.35;100.00
5296;BME280;2670;42.720;23.336;2023-02-20T04:41:58;-22655.19;;;7.33;99.62
5296;BME280;2670;42.720;23.336;2023-02-20T04:44:24;-22654.47;;;7.30;100.00
5296;BME280;2670;42.720;23.336;2023-02-20T04:46:58;-22656.25;;;7.36;98.67
5296;BME280;2670;42.720;23.336;2023-02-20T04:49:26;-22654.75;;;7.31;98.89
5296;BME280;2670;42.720;23.336;2023-02-20T04:51:52;-22654.00;;;7.29;98.24
5296;BME280;2670;42.720;23.336;2023-02-20T04:54:20;-22656.53;;;7.37;97.29
5296;BME280;2670;42.720;23.336;2023-02-20T04:56:47;-22653.56;;;7.27;96.83
5296;BME280;2670;42.720;23.336;2023-02-20T04:59:15;-22652.06;;;7.22;97.48
5296;BME280;2670;42.720;23.336;2023-02-20T05:01:42;-22653.72;;;7.28;96.44
5296;BME280;2670;42.720;23.336;2023-02-20T05:04:12;-22653.56;;;7.27;94.55
5296;BME280;2670;42.720;23.336;2023-02-20T05:06:41;-22653.56;;;7.27;91.95
5296;BME280;2670;42.720;23.336;2023-02-20T05:09:08;-22652.69;;;7.24;91.90
5296;BME280;2670;42.720;23.336;2023-02-20T05:11:35;-22651.03;;;7.18;91.07
5296;BME280;2670;42.720;23.336;2023-02-20T05:14:02;-22650.00;;;7.15;90.10
5296;BME280;2670;42.720;23.336;2023-02-20T05:16:30;-22650.88;;;7.18;87.82
5296;BME280;2670;42.720;23.336;2023-02-20T05:18:57;-22649.69;;;7.14;87.92
5296;BME280;2670;42.720;23.336;2023-02-20T05:21:25;-22645.25;;;6.98;87.38
5296;BME280;2670;42.720;23.336;2023-02-20T05:24:09;-22646.44;;;7.03;85.23
5296;BME280;2670;42.720;23.336;2023-02-20T05:26:35;-22647.16;;;7.05;84.89
5296;BME280;2670;42.720;23.336;2023-02-20T05:29:02;-22647.03;;;7.05;84.83
5296;BME280;2670;42.720;23.336;2023-02-20T05:31:30;-22646.88;;;7.04;85.55
5296;BME280;2670;42.720;23.336;2023-02-20T05:33:57;-22645.97;;;7.01;84.20
5296;BME280;2670;42.720;23.336;2023-02-20T05:36:24;-22649.25;;;7.12;84.10
5296;BME280;2670;42.720;23.336;2023-02-20T05:38:50;-22645.53;;;6.99;85.04
5296;BME280;2670;42.720;23.336;2023-02-20T05:41:18;-22646.56;;;7.03;86.08
5296;BME280;2670;42.720;23.336;2023-02-20T05:43:44;-22645.53;;;6.99;85.71
5296;BME280;2670;42.720;23.336;2023-02-20T05:46:12;-22646.56;;;7.03;85.71
5296;BME280;2670;42.720;23.336;2023-02-20T05:48:41;-22646.13;;;7.02;86.00
5296;BME280;2670;42.720;23.336;2023-02-20T05:51:08;-22647.91;;;7.08;85.34
5296;BME280;2670;42.720;23.336;2023-02-20T05:53:34;-22647.03;;;7.05;86.48
5296;BME280;2670;42.720;23.336;2023-02-20T05:56:02;-22647.63;;;7.07;87.72
5296;BME280;2670;42.720;23.336;2023-02-20T05:58:29;-22648.34;;;7.09;88.28
5296;BME280;2670;42.720;23.336;2023-02-20T06:00:55;-22646.44;;;7.03;89.22
5296;BME280;2670;42.720;23.336;2023-02-20T06:03:22;-22647.63;;;7.07;88.79
5296;BME280;2670;42.720;23.336;2023-02-20T06:05:50;-22649.09;;;7.12;88.66
5296;BME280;2670;42.720;23.336;2023-02-20T06:08:20;-22650.16;;;7.15;88.36
5296;BME280;2670;42.720;23.336;2023-02-20T06:10:47;-22651.03;;;7.18;87.50
5296;BME280;2670;42.720;23.336;2023-02-20T06:13:14;-22652.22;;;7.22;86.02
5296;BME280;2670;42.720;23.336;2023-02-20T06:15:40;-22654.16;;;7.29;83.79
5296;BME280;2670;42.720;23.336;2023-02-20T06:18:07;-22655.34;;;7.33;82.90
5296;BME280;2670;42.720;23.336;2023-02-20T06:20:34;-22658.16;;;7.43;82.59
5296;BME280;2670;42.720;23.336;2023-02-20T06:23:02;-22657.28;;;7.40;81.25
5296;BME280;2670;42.720;23.336;2023-02-20T06:25:29;-22659.50;;;7.47;77.33
5296;BME280;2670;42.720;23.336;2023-02-20T06:27:56;-22660.69;;;7.52;76.91
5296;BME280;2670;42.720;23.336;2023-02-20T06:30:23;-22663.53;;;7.61;77.33
5296;BME280;2670;42.720;23.336;2023-02-20T06:32:50;-22663.38;;;7.61;76.86
5296;BME280;2670;42.720;23.336;2023-02-20T06:35:16;-22666.19;;;7.70;77.34
5296;BME280;2670;42.720;23.336;2023-02-20T06:37:43;-22665.91;;;7.69;77.36
5296;BME280;2670;42.720;23.336;2023-02-20T06:40:11;-22667.09;;;7.73;75.77
5296;BME280;2670;42.720;23.336;2023-02-20T06:42:38;-22666.78;;;7.72;75.25
5296;BME280;2670;42.720;23.336;2023-02-20T06:45:05;-22666.06;;;7.70;74.85
5296;BME280;2670;42.720;23.336;2023-02-20T06:47:32;-22666.34;;;7.71;74.80
5296;BME280;2670;42.720;23.336;2023-02-20T06:49:59;-22666.94;;;7.73;74.32
5296;BME280;2670;42.720;23.336;2023-02-20T06:52:25;-22665.59;;;7.68;74.05
5296;BME280;2670;42.720;23.336;2023-02-20T06:54:52;-22664.72;;;7.65;73.74
5296;BME280;2670;42.720;23.336;2023-02-20T06:57:21;-22665.16;;;7.67;73.43
5296;BME280;2670;42.720;23.336;2023-02-20T06:59:47;-22661.88;;;7.56;73.30
5296;BME280;2670;42.720;23.336;2023-02-20T07:02:15;-22661.44;;;7.54;73.09
5296;BME280;2670;42.720;23.336;2023-02-20T07:04:46;-22662.63;;;7.58;72.58
5296;BME280;2670;42.720;23.336;2023-02-20T07:07:13;-22661.28;;;7.54;72.63
5296;BME280;2670;42.720;23.336;2023-02-20T07:09:40;-22663.66;;;7.62;71.03
5296;BME280;2670;42.720;23.336;2023-02-20T07:12:07;-22665.44;;;7.68;71.57
5296;BME280;2670;42.720;23.336;2023-02-20T07:14:35;-22666.50;;;7.71;69.58
5296;BME280;2670;42.720;23.336;2023-02-20T07:17:02;-22666.50;;;7.71;69.92
5296;BME280;2670;42.720;23.336;2023-02-20T07:19:29;-22670.06;;;7.84;69.87
5296;BME280;2670;42.720;23.336;2023-02-20T07:21:56;-22669.75;;;7.83;68.18
5296;BME280;2670;42.720;23.336;2023-02-20T07:24:22;-22670.22;;;7.84;67.77
5296;BME280;2670;42.720;23.336;2023-02-20T07:26:49;-22672.88;;;7.93;66.62
5296;BME280;2670;42.720;23.336;2023-02-20T07:29:16;-22670.66;;;7.86;66.29
5296;BME280;2670;42.720;23.336;2023-02-20T07:31:44;-22672.44;;;7.92;64.55
5296;BME280;2670;42.720;23.336;2023-02-20T07:34:11;-22668.56;;;7.79;65.16
5296;BME280;2670;42.720;23.336;2023-02-20T07:36:37;-22670.50;;;7.85;64.85
5296;BME280;2670;42.720;23.336;2023-02-20T07:39:04;-22670.66;;;7.86;64.49
5296;BME280;2670;42.720;23.336;2023-02-20T07:41:32;-22670.81;;;7.86;63.78
5296;BME280;2670;42.720;23.336;2023-02-20T07:44:00;-22671.09;;;7.87;64.21
5296;BME280;2670;42.720;23.336;2023-02-20T07:46:26;-22669.16;;;7.81;64.02
5296;BME280;2670;42.720;23.336;2023-02-20T07:48:59;-22666.34;;;7.71;63.01
5296;BME280;2670;42.720;23.336;2023-02-20T07:51:26;-22665.44;;;7.68;63.71
5296;BME280;2670;42.720;23.336;2023-02-20T07:53:53;-22667.69;;;7.76;62.66
5296;BME280;2670;42.720;23.336;2023-02-20T07:56:21;-22668.13;;;7.77;62.96
5296;BME280;2670;42.720;23.336;2023-02-20T07:58:48;-22666.78;;;7.72;63.24
5296;BME280;2670;42.720;23.336;2023-02-20T08:01:15;-22667.84;;;7.76;63.11
5296;BME280;2670;42.720;23.336;2023-02-20T08:03:42;-22670.97;;;7.87;62.55
5296;BME280;2670;42.720;23.336;2023-02-20T08:06:10;-22671.41;;;7.88;60.89
5296;BME280;2670;42.720;23.336;2023-02-20T08:08:37;-22674.06;;;7.97;60.41
5296;BME280;2670;42.720;23.336;2023-02-20T08:11:04;-22676.31;;;8.05;60.00
5296;BME280;2670;42.720;23.336;2023-02-20T08:13:31;-22678.97;;;8.14;58.96
5296;BME280;2670;42.720;23.336;2023-02-20T08:15:58;-22681.81;;;8.24;58.83
5296;BME280;2670;42.720;23.336;2023-02-20T08:18:25;-22683.56;;;8.30;58.43
5296;BME280;2670;42.720;23.336;2023-02-20T08:20:51;-22685.50;;;8.37;57.76
5296;BME280;2670;42.720;23.336;2023-02-20T08:23:21;-22685.06;;;8.35;57.32
5296;BME280;2670;42.720;23.336;2023-02-20T08:25:48;-22686.84;;;8.41;57.25
5296;BME280;2670;42.720;23.336;2023-02-20T08:28:16;-22687.16;;;8.42;56.88
5296;BME280;2670;42.720;23.336;2023-02-20T08:30:43;-22688.78;;;8.48;56.41
5296;BME280;2670;42.720;23.336;2023-02-20T08:33:10;-22692.66;;;8.61;57.26
5296;BME280;2670;42.720;23.336;2023-02-20T08:35:36;-22696.50;;;8.75;56.18
5296;BME280;2670;42.720;23.336;2023-02-20T08:38:04;-22696.06;;;8.73;56.56
5296;BME280;2670;42.720;23.336;2023-02-20T08:40:36;-22697.69;;;8.79;55.84
5296;BME280;2670;42.720;23.336;2023-02-20T08:43:02;-22698.72;;;8.82;55.10
5296;BME280;2670;42.720;23.336;2023-02-20T08:45:29;-22701.41;;;8.91;55.34
5296;BME280;2670;42.720;23.336;2023-02-20T08:47:56;-22701.69;;;8.92;54.41
5296;BME280;2670;42.720;23.336;2023-02-20T08:50:26;-22701.41;;;8.91;54.90
5296;BME280;2670;42.720;23.336;2023-02-20T08:52:52;-22702.59;;;8.95;54.52
5296;BME280;2670;42.720;23.336;2023-02-20T08:55:19;-22705.69;;;9.06;54.76
5296;BME280;2670;42.720;23.336;2023-02-20T08:57:47;-22706.88;;;9.10;53.04
5296;BME280;2670;42.720;23.336;2023-02-20T09:00:15;-22708.81;;;9.17;53.64
5296;BME280;2670;42.720;23.336;2023-02-20T09:02:45;-22713.28;;;9.32;53.19
5296;BME280;2670;42.720;23.336;2023-02-20T09:05:12;-22707.47;;;9.12;53.35
5296;BME280;2670;42.720;23.336;2023-02-20T09:07:39;-22709.56;;;9.19;54.09
5296;BME280;2670;42.720;23.336;2023-02-20T09:10:05;-22712.09;;;9.28;53.05
5296;BME280;2670;42.720;23.336;2023-02-20T09:12:32;-22712.38;;;9.29;53.11
5296;BME280;2670;42.720;23.336;2023-02-20T09:15:00;-22717.56;;;9.47;52.33
5296;BME280;2670;42.720;23.336;2023-02-20T09:17:27;-22720.09;;;9.56;52.09
5296;BME280;2670;42.720;23.336;2023-02-20T09:19:54;-22719.50;;;9.54;51.94
5296;BME280;2670;42.720;23.336;2023-02-20T09:22:21;-22722.91;;;9.65;50.80
5296;BME280;2670;42.720;23.336;2023-02-20T09:24:48;-22720.38;;;9.57;51.76
5296;BME280;2670;42.720;23.336;2023-02-20T09:27:15;-22718.75;;;9.51;51.94
5296;BME280;2670;42.720;23.336;2023-02-20T09:29:42;-22720.84;;;9.58;51.71
5296;BME280;2670;42.720;23.336;2023-02-20T09:32:10;-22720.97;;;9.59;51.87
5296;BME280;2670;42.720;23.336;2023-02-20T09:34:37;-22723.06;;;9.66;51.76
5296;BME280;2670;42.720;23.336;2023-02-20T09:37:04;-22724.09;;;9.69;51.64
5296;BME280;2670;42.720;23.336;2023-02-20T09:39:32;-22725.44;;;9.74;52.13
5296;BME280;2670;42.720;23.336;2023-02-20T09:42:11;-22727.22;;;9.80;51.82
5296;BME280;2670;42.720;23.336;2023-02-20T09:44:47;-22728.09;;;9.83;50.44
5296;BME280;2670;42.720;23.336;2023-02-20T09:47:29;-22731.81;;;9.96;51.23
5296;BME280;2670;42.720;23.336;2023-02-20T09:50:02;-22730.75;;;9.92;51.40
5296;BME280;2670;42.720;23.336;2023-02-20T09:52:33;-22729.72;;;9.89;50.87
5296;BME280;2670;42.720;23.336;2023-02-20T09:55:07;-22733.13;;;10.01;51.36
5296;BME280;2670;42.720;23.336;2023-02-20T09:57:36;-22737.28;;;10.15;51.49
5296;BME280;2670;42.720;23.336;2023-02-20T10:00:08;-22735.94;;;10.10;50.71
5296;BME280;2670;42.720;23.336;2023-02-20T10:02:40;-22737.72;;;10.16;49.78
5296;BME280;2670;42.720;23.336;2023-02-20T10:05:15;-22736.09;;;10.11;49.72
5296;BME280;2670;42.720;23.336;2023-02-20T10:07:43;-22738.78;;;10.20;48.99
5296;BME280;2670;42.720;23.336;2023-02-20T10:10:18;-22742.03;;;10.31;48.85
5296;BME280;2670;42.720;23.336;2023-02-20T10:12:55;-22739.22;;;10.21;48.97
5296;BME280;2670;42.720;23.336;2023-02-20T10:15:24;-22738.91;;;10.20;47.83
5296;BME280;2670;42.720;23.336;2023-02-20T10:17:59;-22740.25;;;10.25;47.47
5296;BME280;2670;42.720;23.336;2023-02-20T10:20:33;-22742.03;;;10.31;47.68
5296;BME280;2670;42.720;23.336;2023-02-20T10:23:13;-22744.56;;;10.40;48.41
5296;BME280;2670;42.720;23.336;2023-02-20T10:25:44;-22742.91;;;10.34;49.22
5296;BME280;2670;42.720;23.336;2023-02-20T10:28:15;-22741.28;;;10.29;48.51
5296;BME280;2670;42.720;23.336;2023-02-20T10:30:45;-22742.91;;;10.34;48.24
5296;BME280;2670;42.720;23.336;2023-02-20T10:33:22;-22747.38;;;10.50;48.53
5296;BME280;2670;42.720;23.336;2023-02-20T10:35:53;-22750.19;;;10.59;47.46
5296;BME280;2670;42.720;23.336;2023-02-20T10:38:25;-22751.22;;;10.63;46.39
5296;BME280;2670;42.720;23.336;2023-02-20T10:40:58;-22751.81;;;10.65;46.46
5296;BME280;2670;42.720;23.336;2023-02-20T10:43:33;-22753.75;;;10.71;46.92
5296;BME280;2670;42.720;23.336;2023-02-20T10:46:06;-22758.63;;;10.88;46.24
5296;BME280;2670;42.720;23.336;2023-02-20T10:48:37;-22762.31;;;11.01;46.90
5296;BME280;2670;42.720;23.336;2023-02-20T10:51:09;-22764.53;;;11.09;46.50
5296;BME280;2670;42.720;23.336;2023-02-20T10:53:41;-22770.31;;;11.29;46.08
5296;BME280;2670;42.720;23.336;2023-02-20T10:56:13;-22766.63;;;11.16;46.22
5296;BME280;2670;42.720;23.336;2023-02-20T10:58:47;-22765.44;;;11.12;46.67
5296;BME280;2670;42.720;23.336;2023-02-20T11:01:19;-22765.28;;;11.11;45.54
5296;BME280;2670;42.720;23.336;2023-02-20T11:03:52;-22764.41;;;11.08;45.75
5296;BME280;2670;42.720;23.336;2023-02-20T11:06:25;-22770.16;;;11.28;46.49
5296;BME280;2670;42.720;23.336;2023-02-20T11:08:54;-22770.63;;;11.30;46.62
5296;BME280;2670;42.720;23.336;2023-02-20T11:11:28;-22774.59;;;11.43;47.01
5296;BME280;2670;42.720;23.336;2023-02-20T11:13:58;-22772.84;;;11.37;46.39
5296;BME280;2670;42.720;23.336;2023-02-20T11:16:28;-22768.25;;;11.21;47.31
5296;BME280;2670;42.720;23.336;2023-02-20T11:19:06;-22773.72;;;11.40;47.25
5296;BME280;2670;42.720;23.336;2023-02-20T11:21:36;-22771.81;;;11.34;47.12
5296;BME280;2670;42.720;23.336;2023-02-20T11:24:29;-22776.53;;;11.50;46.60
5296;BME280;2670;42.720;23.336;2023-02-20T11:27:02;-22778.31;;;11.56;46.14
5296;BME280;2670;42.720;23.336;2023-02-20T11:29:34;-22779.63;;;11.61;46.22
5296;BME280;2670;42.720;23.336;2023-02-20T11:32:24;-22779.34;;;11.60;46.19
5296;BME280;2670;42.720;23.336;2023-02-20T11:35:22;-22782.59;;;11.71;45.97
5296;BME280;2670;42.720;23.336;2023-02-20T11:38:30;-22782.16;;;11.69;45.30
5296;BME280;2670;42.720;23.336;2023-02-20T11:41:23;-22780.97;;;11.65;44.93
5296;BME280;2670;42.720;23.336;2023-02-20T11:44:17;-22784.66;;;11.78;44.71
5296;BME280;2670;42.720;23.336;2023-02-20T11:46:44;-22786.59;;;11.85;44.75
5296;BME280;2670;42.720;23.336;2023-02-20T11:49:22;-22785.13;;;11.80;44.97
5296;BME280;2670;42.720;23.336;2023-02-20T11:51:51;-22788.22;;;11.90;44.75
5296;BME280;2670;42.720;23.336;2023-02-20T11:54:21;-22784.06;;;11.76;44.88
5296;BME280;2670;42.720;23.336;2023-02-20T11:56:58;-22783.78;;;11.75;45.14
5296;BME280;2670;42.720;23.336;2023-02-20T11:59:29;-22785.25;;;11.80;45.35
5296;BME280;2670;42.720;23.336;2023-02-20T12:02:19;-22788.97;;;11.93;44.31
5296;BME280;2670;42.720;23.336;2023-02-20T12:05:01;-22783.94;;;11.76;44.42
5296;BME280;2670;42.720;23.336;2023-02-20T12:07:33;-22785.25;;;11.80;44.99
5296;BME280;2670;42.720;23.336;2023-02-20T12:10:08;-22784.53;;;11.78;44.50
5296;BME280;2670;42.720;23.336;2023-02-20T12:12:35;-22789.25;;;11.94;44.53
5296;BME280;2670;42.720;23.336;2023-02-20T12:15:04;-22792.06;;;12.04;44.41
5296;BME280;2670;42.720;23.336;2023-02-20T12:17:36;-22790.72;;;11.99;44.14
5296;BME280;2670;42.720;23.336;2023-02-20T12:20:08;-22794.13;;;12.11;44.12
5296;BME280;2670;42.720;23.336;2023-02-20T12:22:42;-22792.06;;;12.04;43.20
5296;BME280;2670;42.720;23.336;2023-02-20T12:25:19;-22787.63;;;11.88;43.43
5296;BME280;2670;42.720;23.336;2023-02-20T12:27:56;-22788.06;;;11.90;43.45
5296;BME280;2670;42.720;23.336;2023-02-20T12:30:32;-22785.56;;;11.81;43.32
5296;BME280;2670;42.720;23.336;2023-02-20T12:33:17;-22787.94;;;11.89;43.47
5296;BME280;2670;42.720;23.336;2023-02-20T12:35:54;-22794.00;;;12.10;43.74
5296;BME280;2670;42.720;23.336;2023-02-20T12:38:37;-22791.91;;;12.03;43.69
5296;BME280;2670;42.720;23.336;2023-02-20T12:41:22;-22793.56;;;12.09;43.55
5296;BME280;2670;42.720;23.336;2023-02-20T12:43:59;-22790.88;;;12.00;43.50
5296;BME280;2670;42.720;23.336;2023-02-20T12:46:33;-22790.28;;;11.98;43.77
5296;BME280;2670;42.720;23.336;2023-02-20T12:49:17;-22794.13;;;12.11;43.17
5296;BME280;2670;42.720;23.336;2023-02-20T12:51:51;-22793.09;;;12.07;43.35
5296;BME280;2670;42.720;23.336;2023-02-20T12:54:29;-22792.06;;;12.04;43.17
5296;BME280;2670;42.720;23.336;2023-02-20T12:57:05;-22795.19;;;12.14;43.52
5296;BME280;2670;42.720;23.336;2023-02-20T12:59:39;-22795.63;;;12.16;43.24
5296;BME280;2670;42.720;23.336;2023-02-20T13:02:21;-22800.78;;;12.34;43.66
5296;BME280;2670;42.720;23.336;2023-02-20T13:04:53;-22800.66;;;12.33;43.35
5296;BME280;2670;42.720;23.336;2023-02-20T13:07:26;-22800.06;;;12.31;43.41
5296;BME280;2670;42.720;23.336;2023-02-20T13:10:02;-22800.78;;;12.34;43.35
5296;BME280;2670;42.720;23.336;2023-02-20T13:12:30;-22796.81;;;12.20;43.54
5296;BME280;2670;42.720;23.336;2023-02-20T13:15:11;-22799.75;;;12.30;43.59
5296;BME280;2670;42.720;23.336;2023-02-20T13:17:44;-22799.31;;;12.29;43.76
5296;BME280;2670;42.720;23.336;2023-02-20T13:20:17;-22797.84;;;12.24;43.75
5296;BME280;2670;42.720;23.336;2023-02-20T13:22:58;-22801.22;;;12.35;44.22
5296;BME280;2670;42.720;23.336;2023-02-20T13:25:38;-22800.66;;;12.33;43.86
5296;BME280;2670;42.720;23.336;2023-02-20T13:28:34;-22794.28;;;12.11;44.14
5296;BME280;2670;42.720;23.336;2023-02-20T13:31:22;-22786.59;;;11.85;44.77
5296;BME280;2670;42.720;23.336;2023-02-20T13:33:51;-22784.38;;;11.77;44.98